YQM weather

Greater Moncton International Airport
Moncton, New Brunswick, Canada

Public forecast

Using degrees Celsius for public forecast. Weather courtesy of forecast.io.

Current aviation weather report (METAR) for Greater Moncton International Airport

Retrieved 2019/10/18 07:26 UTC (17 minutes ago):

CYQM 180726Z 18008KT 10SM RA FEW035 BKN053 09/08 A2916 RMK SC2SC5 SLP878 DENSITY ALT 500FT

Aviation forecast (TAF) for Greater Moncton International Airport

Retrieved 2019/10/18 06:40 UTC (1 hour ago):

TAF CYQM 180538Z 1806/1906 15010KT P6SM SCT015 BKN040 TEMPO 1806/1813 4SM -SHRA BR BKN015 OVC040 BECMG 1808/1810 23012G22KT FM181300 24010G20KT P6SM BKN015 FM181800 25010G20KT P6SM FEW015 BKN025 BECMG 1821/1823 26010KT RMK NXT FCST BY 181200Z